Time;durP1;ratioP1;P1;durP2;ratioP2;P2;SDS_P1;SDS_P2;PMS_P1;PMS_P2;Temp;Humidity;BMP_temperature;BMP_pressure;BME280_temperature;BME280_humidity;BME280_pressure;Samples;Min_cycle;Max_cycle;Signal;HPM_P1;HPM_P2
2023/05/03 00:00:47;;;;;;;;;;;7.10;99.90;;;;;;5097480;28;19939;-72
2023/05/03 00:03:13;;;;;;;;;;;7.10;99.90;;;;;;5097673;28;19977;-72
2023/05/03 00:05:40;;;;;;;;;;;7.70;99.90;;;;;;5115851;28;21285;-71
2023/05/03 00:08:06;;;;;;;;;;;7.20;99.90;;;;;;5115501;28;19971;-72
2023/05/03 00:10:32;;;;;;;;;;;7.20;99.90;;;;;;5098260;28;20367;-72
2023/05/03 00:12:57;;;;;;;;;;;7.50;99.90;;;;;;5096843;28;20019;-71
2023/05/03 00:15:23;;;;;;;;;;;7.20;99.90;;;;;;5096877;28;19931;-72
2023/05/03 00:17:48;;;;;;;;;;;7.30;99.90;;;;;;5116306;28;19950;-71
2023/05/03 00:20:14;;;;;;;;;;;7.30;99.90;;;;;;5115399;28;19977;-72
2023/05/03 00:22:39;;;;;;;;;;;7.50;99.90;;;;;;5098037;28;19924;-72
2023/05/03 00:25:09;;;;;;;;;;;8.90;99.90;;;;;;5097526;28;19923;-71
2023/05/03 00:27:35;;;;;;;;;;;7.40;99.90;;;;;;5097066;28;19928;-72
2023/05/03 00:30:01;;;;;;;;;;;7.40;99.90;;;;;;5115519;28;19924;-72
2023/05/03 00:32:27;;;;;;;;;;;7.40;99.90;;;;;;5097801;28;19953;-72
2023/05/03 00:34:53;;;;;;;;;;;7.40;99.90;;;;;;5114920;28;19931;-72
2023/05/03 00:37:19;;;;;;;;;;;7.40;99.90;;;;;;5097726;28;20328;-71
2023/05/03 00:39:44;;;;;;;;;;;7.50;99.90;;;;;;5115716;28;20045;-71
2023/05/03 00:42:10;;;;;;;;;;;7.40;99.90;;;;;;5096095;28;19981;-71
2023/05/03 00:44:35;;;;;;;;;;;7.90;99.90;;;;;;5115774;28;19930;-71
2023/05/03 00:47:01;;;;;;;;;;;7.40;99.90;;;;;;5097504;28;19928;-71
2023/05/03 00:49:27;;;;;;;;;;;7.40;99.90;;;;;;5096297;28;20018;-71
2023/05/03 00:51:53;;;;;;;;;;;7.50;99.90;;;;;;5115002;28;19924;-72
2023/05/03 00:54:19;;;;;;;;;;;7.50;99.90;;;;;;5097553;28;19924;-72
2023/05/03 00:56:45;;;;;;;;;;;7.50;99.90;;;;;;5096779;28;19923;-71
2023/05/03 00:59:11;;;;;;;;;;;7.80;99.90;;;;;;5115052;28;19934;-72
2023/05/03 01:01:36;;;;;;;;;;;7.50;99.90;;;;;;5097190;28;20397;-71
2023/05/03 01:04:03;;;;;;;;;;;7.50;99.90;;;;;;5114307;28;19923;-71
2023/05/03 01:06:31;;;;;;;;;;;7.50;99.90;;;;;;5115343;28;19962;-71
2023/05/03 01:09:11;;;;;;;;;;;7.70;99.90;;;;;;5096711;28;19927;-72
2023/05/03 01:11:48;;;;;;;;;;;7.60;99.90;;;;;;5114616;28;19950;-71
2023/05/03 01:14:29;;;;;;;;;;;7.40;99.90;;;;;;5096443;28;19930;-71
2023/05/03 01:17:01;;;;;;;;;;;7.40;99.90;;;;;;5114069;28;19924;-71
2023/05/03 01:19:39;;;;;;;;;;;7.30;99.90;;;;;;5095156;28;19981;-71
2023/05/03 01:22:16;;;;;;;;;;;7.30;99.90;;;;;;5113983;28;19924;-71
2023/05/03 01:24:44;;;;;;;;;;;7.30;99.90;;;;;;5095909;28;19935;-71
2023/05/03 01:27:10;;;;;;;;;;;7.50;99.90;;;;;;5114682;28;20313;-71
2023/05/03 01:29:36;;;;;;;;;;;7.20;99.90;;;;;;5114897;28;19931;-71
2023/05/03 01:32:10;;;;;;;;;;;7.10;99.90;;;;;;5095374;28;19924;-71
2023/05/03 01:35:02;;;;;;;;;;;6.90;99.90;;;;;;5096340;28;19927;-71
2023/05/03 01:37:28;;;;;;;;;;;6.80;99.90;;;;;;5114431;28;20369;-71
2023/05/03 01:39:56;;;;;;;;;;;6.80;99.90;;;;;;5113859;28;19927;-71
2023/05/03 01:42:23;;;;;;;;;;;6.70;99.90;;;;;;5096695;28;20279;-71
2023/05/03 01:44:49;;;;;;;;;;;6.90;99.90;;;;;;5095517;28;19923;-71
2023/05/03 01:47:14;;;;;;;;;;;6.50;99.90;;;;;;5114375;28;20291;-71
2023/05/03 01:49:43;;;;;;;;;;;6.50;99.90;;;;;;5114195;28;19931;-71
2023/05/03 01:52:08;;;;;;;;;;;6.50;99.90;;;;;;5113357;28;20376;-71
2023/05/03 01:54:33;;;;;;;;;;;7.00;99.90;;;;;;5114595;28;19924;-71
2023/05/03 01:57:00;;;;;;;;;;;6.50;99.90;;;;;;5113667;28;19930;-71
2023/05/03 01:59:26;;;;;;;;;;;6.60;99.90;;;;;;5112632;28;19924;-71
2023/05/03 02:01:51;;;;;;;;;;;6.60;99.90;;;;;;5095122;28;19935;-71
2023/05/03 02:04:17;;;;;;;;;;;6.60;99.90;;;;;;5096238;28;19924;-71
2023/05/03 02:06:42;;;;;;;;;;;6.70;99.90;;;;;;5113177;28;19920;-71
2023/05/03 02:09:11;;;;;;;;;;;6.60;99.90;;;;;;5095974;28;20386;-71
2023/05/03 02:11:36;;;;;;;;;;;6.70;99.90;;;;;;5114247;28;19924;-71
2023/05/03 02:14:02;;;;;;;;;;;6.70;99.90;;;;;;5094799;28;19973;-71
2023/05/03 02:16:28;;;;;;;;;;;6.70;99.90;;;;;;5095141;28;20406;-71
2023/05/03 02:18:58;;;;;;;;;;;6.90;99.90;;;;;;5113259;28;19924;-72
2023/05/03 02:21:24;;;;;;;;;;;6.80;99.90;;;;;;5094841;28;20382;-71
2023/05/03 02:23:50;;;;;;;;;;;6.80;99.90;;;;;;5095713;28;19955;-71
2023/05/03 02:26:16;;;;;;;;;;;6.80;99.90;;;;;;5095791;28;19930;-71
2023/05/03 02:28:41;;;;;;;;;;;6.90;99.90;;;;;;5112295;28;19975;-71
2023/05/03 02:31:10;;;;;;;;;;;6.90;99.90;;;;;;5113169;28;19936;-72
2023/05/03 02:33:35;;;;;;;;;;;7.00;99.90;;;;;;5095425;28;20018;-71
2023/05/03 02:36:01;;;;;;;;;;;7.00;99.90;;;;;;5112819;28;19928;-71
2023/05/03 02:38:26;;;;;;;;;;;7.00;99.90;;;;;;5095774;28;20280;-71
2023/05/03 02:40:52;;;;;;;;;;;7.00;99.90;;;;;;5094481;28;20028;-72
2023/05/03 02:43:17;;;;;;;;;;;7.00;99.90;;;;;;5113263;28;19934;-71
2023/05/03 02:45:43;;;;;;;;;;;7.10;99.90;;;;;;5095599;28;19920;-71
2023/05/03 02:48:08;;;;;;;;;;;7.10;99.90;;;;;;5112368;28;20287;-71
2023/05/03 02:50:34;;;;;;;;;;;7.10;99.90;;;;;;5095646;28;19930;-71
2023/05/03 02:53:00;;;;;;;;;;;7.10;99.90;;;;;;5093852;28;19924;-72
2023/05/03 02:55:26;;;;;;;;;;;7.20;99.90;;;;;;5112316;28;20298;-72
2023/05/03 02:57:55;;;;;;;;;;;7.20;99.90;;;;;;5113161;28;19928;-72
2023/05/03 03:00:20;;;;;;;;;;;7.20;99.90;;;;;;5113743;28;20340;-71
2023/05/03 03:02:46;;;;;;;;;;;7.20;99.90;;;;;;5094078;28;19924;-71
2023/05/03 03:05:11;;;;;;;;;;;7.30;99.90;;;;;;5113376;28;19935;-71
2023/05/03 03:07:43;;;;;;;;;;;7.30;99.90;;;;;;5095101;28;19990;-71
2023/05/03 03:10:08;;;;;;;;;;;7.20;99.90;;;;;;5094350;28;20362;-72
2023/05/03 03:12:37;;;;;;;;;;;7.30;99.90;;;;;;5098514;28;19924;-71
2023/05/03 03:15:03;;;;;;;;;;;7.30;99.90;;;;;;5117296;28;19946;-72
2023/05/03 03:17:29;;;;;;;;;;;7.30;99.90;;;;;;5116679;28;20371;-72
2023/05/03 03:19:54;;;;;;;;;;;7.50;99.90;;;;;;5117235;28;19941;-72
2023/05/03 03:22:20;;;;;;;;;;;7.30;99.90;;;;;;5116811;28;19924;-71
2023/05/03 03:24:45;;;;;;;;;;;7.70;99.90;;;;;;5098072;28;19924;-71
2023/05/03 03:27:11;;;;;;;;;;;7.20;99.90;;;;;;5098966;28;19968;-71
2023/05/03 03:29:36;;;;;;;;;;;7.20;99.90;;;;;;5117209;28;19930;-71
2023/05/03 03:32:02;;;;;;;;;;;7.50;99.90;;;;;;5097650;28;19942;-71
2023/05/03 03:34:31;;;;;;;;;;;7.30;99.90;;;;;;5116573;28;19924;-72
2023/05/03 03:36:56;;;;;;;;;;;7.30;99.90;;;;;;5116977;28;19969;-71
2023/05/03 03:39:22;;;;;;;;;;;7.30;99.90;;;;;;5098378;28;19923;-72
2023/05/03 03:41:47;;;;;;;;;;;7.30;99.90;;;;;;5098234;28;19930;-71
2023/05/03 03:44:13;;;;;;;;;;;7.20;99.90;;;;;;5116070;28;19931;-71
2023/05/03 03:46:38;;;;;;;;;;;7.20;99.90;;;;;;5098803;28;20022;-71
2023/05/03 03:49:04;;;;;;;;;;;7.60;99.90;;;;;;5097973;28;19923;-71
2023/05/03 03:51:30;;;;;;;;;;;7.30;99.90;;;;;;5115784;28;20306;-71
2023/05/03 03:53:55;;;;;;;;;;;7.20;99.90;;;;;;5115988;28;19923;-71
2023/05/03 03:56:21;;;;;;;;;;;7.30;99.90;;;;;;5098733;28;19978;-72
2023/05/03 03:58:47;;;;;;;;;;;7.30;99.90;;;;;;5115586;28;19941;-71
2023/05/03 04:01:12;;;;;;;;;;;7.30;99.90;;;;;;5116149;28;19978;-71
2023/05/03 04:03:38;;;;;;;;;;;7.30;99.90;;;;;;5097628;28;19970;-72
2023/05/03 04:06:04;;;;;;;;;;;7.30;99.90;;;;;;5097472;28;19931;-71
2023/05/03 04:08:29;;;;;;;;;;;7.20;99.90;;;;;;5116209;28;19968;-71
2023/05/03 04:10:55;;;;;;;;;;;7.30;99.90;;;;;;5098166;28;20253;-72
2023/05/03 04:13:20;;;;;;;;;;;7.40;99.90;;;;;;5115278;28;19923;-71
2023/05/03 04:15:46;;;;;;;;;;;7.20;99.90;;;;;;5116251;28;19930;-71
2023/05/03 04:18:11;;;;;;;;;;;7.20;99.90;;;;;;5115630;28;20387;-70
2023/05/03 04:20:37;;;;;;;;;;;7.20;99.90;;;;;;5115046;28;19927;-72
2023/05/03 04:23:06;;;;;;;;;;;7.20;99.90;;;;;;5093333;28;20399;-71
2023/05/03 04:25:31;;;;;;;;;;;7.20;99.90;;;;;;5115537;28;19935;-72
2023/05/03 04:28:00;;;;;;;;;;;7.60;99.90;;;;;;5114934;28;19923;-70
2023/05/03 04:30:25;;;;;;;;;;;7.30;99.90;;;;;;5116060;28;19930;-69
2023/05/03 04:32:53;;;;;;;;;;;7.30;99.90;;;;;;5115585;28;19924;-71
2023/05/03 04:35:18;;;;;;;;;;;7.60;99.90;;;;;;5097200;28;19924;-71
2023/05/03 04:37:44;;;;;;;;;;;7.30;99.90;;;;;;5097634;28;19977;-72
2023/05/03 04:40:11;;;;;;;;;;;7.40;99.90;;;;;;5097290;28;19989;-71
2023/05/03 04:42:36;;;;;;;;;;;7.40;99.90;;;;;;5095293;28;19955;-71
2023/05/03 04:45:05;;;;;;;;;;;7.40;99.90;;;;;;5095858;28;19970;-71
2023/05/03 04:47:31;;;;;;;;;;;7.40;99.90;;;;;;5114488;28;19924;-71
2023/05/03 04:49:56;;;;;;;;;;;7.40;99.90;;;;;;5097051;28;20085;-71
2023/05/03 04:52:23;;;;;;;;;;;7.70;99.90;;;;;;5096552;28;19924;-70
2023/05/03 04:54:48;;;;;;;;;;;7.50;99.90;;;;;;5115011;28;19924;-71
2023/05/03 04:57:14;;;;;;;;;;;7.50;99.90;;;;;;5096877;28;19931;-70
2023/05/03 04:59:40;;;;;;;;;;;7.50;99.90;;;;;;5097004;28;19928;-71
2023/05/03 05:02:06;;;;;;;;;;;8.10;99.90;;;;;;5114187;28;19924;-71
2023/05/03 05:04:31;;;;;;;;;;;7.60;99.90;;;;;;5115277;28;20290;-71
2023/05/03 05:06:58;;;;;;;;;;;7.70;99.90;;;;;;5096213;28;19965;-71
2023/05/03 05:09:27;;;;;;;;;;;8.20;99.90;;;;;;5114387;28;19977;-71
2023/05/03 05:11:53;;;;;;;;;;;7.70;99.90;;;;;;5095860;28;20282;-71
2023/05/03 05:14:19;;;;;;;;;;;7.80;99.90;;;;;;5096626;28;19924;-71
2023/05/03 05:16:44;;;;;;;;;;;8.90;99.90;;;;;;5096049;28;19980;-74
2023/05/03 05:19:11;;;;;;;;;;;7.90;99.90;;;;;;5096086;28;19932;-74
2023/05/03 05:21:36;;;;;;;;;;;8.00;99.90;;;;;;5096844;28;19930;-76
2023/05/03 05:24:02;;;;;;;;;;;7.90;99.90;;;;;;5095449;28;20018;-76
2023/05/03 05:26:27;;;;;;;;;;;8.00;99.90;;;;;;5114619;28;19946;-72
2023/05/03 05:28:53;;;;;;;;;;;8.00;99.90;;;;;;5095422;28;19931;-72
2023/05/03 05:31:18;;;;;;;;;;;9.00;99.90;;;;;;5095230;28;19924;-72
2023/05/03 05:33:47;;;;;;;;;;;8.10;99.90;;;;;;5113444;28;19930;-72
2023/05/03 05:36:13;;;;;;;;;;;8.90;99.90;;;;;;5112557;28;19950;-71
2023/05/03 05:38:39;;;;;;;;;;;8.30;99.90;;;;;;5112693;28;19927;-72
2023/05/03 05:41:04;;;;;;;;;;;8.20;99.90;;;;;;5095136;28;19924;-72
2023/05/03 05:43:30;;;;;;;;;;;8.40;99.90;;;;;;5095370;28;19923;-72
2023/05/03 05:45:56;;;;;;;;;;;8.50;99.90;;;;;;5094622;28;19924;-72
2023/05/03 05:48:21;;;;;;;;;;;8.50;99.90;;;;;;5095380;28;19927;-72
2023/05/03 05:50:47;;;;;;;;;;;8.60;99.90;;;;;;5095029;28;19965;-72
2023/05/03 05:53:13;;;;;;;;;;;8.60;99.90;;;;;;5113400;28;19930;-72
2023/05/03 05:55:38;;;;;;;;;;;8.60;99.90;;;;;;5095482;28;20359;-72
2023/05/03 05:58:04;;;;;;;;;;;8.70;99.90;;;;;;5112282;28;20405;-72
2023/05/03 06:00:30;;;;;;;;;;;8.80;99.90;;;;;;5095163;28;19924;-72
2023/05/03 06:02:55;;;;;;;;;;;8.90;99.90;;;;;;5113258;28;20015;-72
2023/05/03 06:05:21;;;;;;;;;;;9.00;99.90;;;;;;5094593;28;19931;-72
2023/05/03 06:07:47;;;;;;;;;;;9.10;99.90;;;;;;5095316;28;20009;-72
2023/05/03 06:10:12;;;;;;;;;;;9.20;99.90;;;;;;5113145;28;19919;-72
2023/05/03 06:12:38;;;;;;;;;;;9.30;99.90;;;;;;5094233;28;19985;-72
2023/05/03 06:15:04;;;;;;;;;;;9.40;99.90;;;;;;5113301;28;20299;-72
2023/05/03 06:17:30;;;;;;;;;;;9.40;99.90;;;;;;5113436;28;20345;-72
2023/05/03 06:19:56;;;;;;;;;;;9.40;99.90;;;;;;5112372;28;19924;-72
2023/05/03 06:22:21;;;;;;;;;;;9.40;99.90;;;;;;5094923;28;19992;-72
2023/05/03 06:24:47;;;;;;;;;;;9.50;99.90;;;;;;5112917;28;19931;-72
2023/05/03 06:27:12;;;;;;;;;;;9.80;99.90;;;;;;5094375;28;20373;-72
2023/05/03 06:29:38;;;;;;;;;;;9.60;99.90;;;;;;5095049;28;19928;-72
2023/05/03 06:32:03;;;;;;;;;;;9.70;99.90;;;;;;5094669;28;19924;-72
2023/05/03 06:34:29;;;;;;;;;;;9.70;99.90;;;;;;5112203;28;19924;-72
2023/05/03 06:36:54;;;;;;;;;;;9.70;99.90;;;;;;5112845;28;20000;-72
2023/05/03 06:39:20;;;;;;;;;;;9.80;99.90;;;;;;5094754;28;20401;-72
2023/05/03 06:41:45;;;;;;;;;;;9.80;99.90;;;;;;5112426;28;19931;-72
2023/05/03 06:44:11;;;;;;;;;;;9.70;99.90;;;;;;5112455;28;20456;-72
2023/05/03 06:46:37;;;;;;;;;;;9.70;99.90;;;;;;5112850;28;19924;-72
2023/05/03 06:49:03;;;;;;;;;;;9.80;99.90;;;;;;5111807;28;19953;-73
2023/05/03 06:51:31;;;;;;;;;;;9.90;99.90;;;;;;5095007;28;19919;-72
2023/05/03 06:54:00;;;;;;;;;;;10.10;99.90;;;;;;5093622;28;19923;-72
2023/05/03 06:56:27;;;;;;;;;;;10.20;99.90;;;;;;5087256;28;19978;-71
2023/05/03 06:58:52;;;;;;;;;;;10.30;99.90;;;;;;5089361;28;20389;-72
2023/05/03 07:01:22;;;;;;;;;;;10.40;99.90;;;;;;5090291;28;19968;-72
2023/05/03 07:03:47;;;;;;;;;;;10.50;99.90;;;;;;5091969;28;19923;-72
2023/05/03 07:06:14;;;;;;;;;;;10.50;99.90;;;;;;5090220;28;19931;-71
2023/05/03 07:08:39;;;;;;;;;;;10.50;99.90;;;;;;5089998;28;20371;-72
2023/05/03 07:11:05;;;;;;;;;;;10.50;99.90;;;;;;5091411;28;19924;-72
2023/05/03 07:13:31;;;;;;;;;;;10.60;99.90;;;;;;5091531;28;20395;-71
2023/05/03 07:15:56;;;;;;;;;;;10.60;99.90;;;;;;5089112;28;19934;-72
2023/05/03 07:18:22;;;;;;;;;;;10.60;99.90;;;;;;5092216;28;19983;-72
2023/05/03 07:20:50;;;;;;;;;;;10.60;99.90;;;;;;5091268;28;19924;-72
2023/05/03 07:23:16;;;;;;;;;;;10.70;99.90;;;;;;5090097;28;19928;-71
2023/05/03 07:25:42;;;;;;;;;;;10.80;99.90;;;;;;5085860;28;20301;-72
2023/05/03 07:28:08;;;;;;;;;;;10.70;99.90;;;;;;5081695;28;20363;-72
2023/05/03 07:30:34;;;;;;;;;;;10.80;99.90;;;;;;5076692;28;19924;-72
2023/05/03 07:32:59;;;;;;;;;;;10.80;99.90;;;;;;5079349;28;20288;-72
2023/05/03 07:35:26;;;;;;;;;;;11.30;99.90;;;;;;5075377;28;20359;-72
2023/05/03 07:37:51;;;;;;;;;;;10.90;99.90;;;;;;5109468;28;19920;-72
2023/05/03 07:40:18;;;;;;;;;;;11.00;99.90;;;;;;5098520;28;19932;-72
2023/05/03 07:42:43;;;;;;;;;;;10.90;99.90;;;;;;5085842;28;19931;-73
2023/05/03 07:45:09;;;;;;;;;;;11.00;99.90;;;;;;5081503;28;19924;-71
2023/05/03 07:47:38;;;;;;;;;;;10.90;99.90;;;;;;5070499;28;20017;-73
2023/05/03 07:50:04;;;;;;;;;;;10.90;99.90;;;;;;5082992;28;19920;-71
2023/05/03 07:52:34;;;;;;;;;;;10.80;99.90;;;;;;5078487;28;19928;-71
2023/05/03 07:55:02;;;;;;;;;;;11.00;99.90;;;;;;5088850;28;19977;-71
2023/05/03 07:57:27;;;;;;;;;;;10.90;99.90;;;;;;5090124;28;19925;-73
2023/05/03 07:59:53;;;;;;;;;;;11.00;99.90;;;;;;5089275;27;19950;-70
2023/05/03 08:02:19;;;;;;;;;;;11.10;99.90;;;;;;5088173;28;19971;-73
2023/05/03 08:04:45;;;;;;;;;;;10.90;99.90;;;;;;5076543;28;19924;-72
2023/05/03 08:07:10;;;;;;;;;;;11.00;99.90;;;;;;5084418;27;19928;-72
2023/05/03 08:09:36;;;;;;;;;;;10.90;99.90;;;;;;5077650;27;20386;-70
2023/05/03 08:12:02;;;;;;;;;;;10.90;99.90;;;;;;5098618;27;20389;-71
2023/05/03 08:14:27;;;;;;;;;;;10.90;99.90;;;;;;5115872;27;19924;-72
2023/05/03 08:16:53;;;;;;;;;;;10.90;99.90;;;;;;5097834;27;19927;-71
2023/05/03 08:19:18;;;;;;;;;;;10.90;99.90;;;;;;5076525;28;19924;-71
2023/05/03 08:21:45;;;;;;;;;;;10.90;99.90;;;;;;5091024;27;19928;-71
2023/05/03 08:24:12;;;;;;;;;;;10.90;99.90;;;;;;5109625;27;20024;-71
2023/05/03 08:26:42;;;;;;;;;;;10.90;99.90;;;;;;5090526;28;19996;-70
2023/05/03 08:29:08;;;;;;;;;;;10.90;99.90;;;;;;5095984;28;19981;-71
2023/05/03 08:31:36;;;;;;;;;;;10.90;99.90;;;;;;5097488;28;19924;-72
2023/05/03 08:34:02;;;;;;;;;;;10.80;99.90;;;;;;5095876;28;19935;-72
2023/05/03 08:36:28;;;;;;;;;;;11.00;99.90;;;;;;5097261;28;19992;-71
2023/05/03 08:38:54;;;;;;;;;;;10.80;99.90;;;;;;5096813;28;20442;-70
2023/05/03 08:41:28;;;;;;;;;;;10.80;99.90;;;;;;5096592;28;20315;-71
2023/05/03 08:43:54;;;;;;;;;;;10.80;99.90;;;;;;5116112;28;20397;-71
2023/05/03 08:46:20;;;;;;;;;;;10.80;99.90;;;;;;5097054;28;20011;-71
2023/05/03 08:48:46;;;;;;;;;;;10.90;99.90;;;;;;5107804;28;20045;-73
2023/05/03 08:51:12;;;;;;;;;;;11.00;99.90;;;;;;5106978;27;19942;-71
2023/05/03 08:53:38;;;;;;;;;;;11.00;99.90;;;;;;5082206;28;19928;-76
2023/05/03 08:56:07;;;;;;;;;;;11.00;99.90;;;;;;5086662;27;19935;-75
2023/05/03 08:58:33;;;;;;;;;;;11.20;99.90;;;;;;5111098;27;19939;-74
2023/05/03 09:01:06;;;;;;;;;;;11.00;99.90;;;;;;5101217;27;20403;-73
2023/05/03 09:03:32;;;;;;;;;;;11.30;99.90;;;;;;5115933;27;20548;-74
2023/05/03 09:06:03;;;;;;;;;;;11.40;99.90;;;;;;5108010;27;19928;-72
2023/05/03 09:08:29;;;;;;;;;;;11.50;99.90;;;;;;5117896;27;19920;-75
2023/05/03 09:10:56;;;;;;;;;;;11.50;99.90;;;;;;5084114;28;19927;-73
2023/05/03 09:13:28;;;;;;;;;;;11.60;99.90;;;;;;5110312;28;20031;-75
2023/05/03 09:15:56;;;;;;;;;;;11.70;99.90;;;;;;5091353;28;19928;-76
2023/05/03 09:18:22;;;;;;;;;;;11.70;99.90;;;;;;5109507;27;19932;-74
2023/05/03 09:20:51;;;;;;;;;;;11.70;99.90;;;;;;5095547;28;19919;-73
2023/05/03 09:23:27;;;;;;;;;;;11.70;99.90;;;;;;5094261;28;19923;-71
2023/05/03 09:25:53;;;;;;;;;;;11.70;99.90;;;;;;5088688;28;19924;-71
2023/05/03 09:28:19;;;;;;;;;;;12.00;99.90;;;;;;5107293;27;19946;-72
2023/05/03 09:30:45;;;;;;;;;;;11.80;99.90;;;;;;5094068;28;19924;-71
2023/05/03 09:33:11;;;;;;;;;;;12.00;99.90;;;;;;5119135;27;19927;-70
2023/05/03 09:35:37;;;;;;;;;;;12.00;99.90;;;;;;5091225;28;20003;-72
2023/05/03 09:38:03;;;;;;;;;;;12.00;99.90;;;;;;5091704;28;19930;-73
2023/05/03 09:40:29;;;;;;;;;;;12.30;99.90;;;;;;5089966;27;19924;-73
2023/05/03 09:43:08;;;;;;;;;;;12.40;99.90;;;;;;5107965;27;19930;-75
2023/05/03 09:45:34;;;;;;;;;;;12.30;98.90;;;;;;5113338;28;19919;-78
2023/05/03 09:48:03;;;;;;;;;;;12.50;99.90;;;;;;5093803;27;19928;-75
2023/05/03 09:50:32;;;;;;;;;;;12.50;98.90;;;;;;5091814;28;19923;-73
2023/05/03 09:53:00;;;;;;;;;;;12.50;98.50;;;;;;5113047;28;19924;-72
2023/05/03 09:55:26;;;;;;;;;;;12.50;98.70;;;;;;5110890;28;19931;-72
2023/05/03 09:57:56;;;;;;;;;;;12.70;99.30;;;;;;5092221;28;20456;-73
2023/05/03 10:00:24;;;;;;;;;;;12.80;99.70;;;;;;5095396;28;20392;-72
2023/05/03 10:02:52;;;;;;;;;;;12.70;98.70;;;;;;5112854;28;19927;-76
2023/05/03 10:05:19;;;;;;;;;;;12.70;99.00;;;;;;5094588;28;19963;-71
2023/05/03 10:07:50;;;;;;;;;;;12.70;98.60;;;;;;5093148;28;19924;-74
2023/05/03 10:10:16;;;;;;;;;;;12.80;99.00;;;;;;5088610;27;19924;-73
2023/05/03 10:12:42;;;;;;;;;;;12.70;99.10;;;;;;5102699;28;19976;-72
2023/05/03 10:15:10;;;;;;;;;;;12.50;98.10;;;;;;5095966;27;20452;-74
2023/05/03 10:17:36;;;;;;;;;;;12.60;98.40;;;;;;5104057;27;19931;-76
2023/05/03 10:20:13;;;;;;;;;;;12.90;99.30;;;;;;5109803;27;19927;-74
2023/05/03 10:22:58;;;;;;;;;;;13.10;99.20;;;;;;5092123;28;20371;-75
2023/05/03 10:25:23;;;;;;;;;;;13.40;98.90;;;;;;5094602;28;19924;-77
2023/05/03 10:27:50;;;;;;;;;;;13.80;99.00;;;;;;5094279;28;20268;-75
2023/05/03 10:30:28;;;;;;;;;;;14.10;98.60;;;;;;5112843;28;19924;-75
2023/05/03 10:32:54;;;;;;;;;;;13.90;96.60;;;;;;5112783;28;19930;-74
2023/05/03 10:35:20;;;;;;;;;;;14.00;95.50;;;;;;5113160;28;19927;-74
2023/05/03 10:37:47;;;;;;;;;;;14.00;98.00;;;;;;5094764;28;20406;-75
2023/05/03 10:40:17;;;;;;;;;;;14.00;96.60;;;;;;5094505;28;19923;-75
2023/05/03 10:42:43;;;;;;;;;;;14.00;96.90;;;;;;5095246;28;19924;-75
2023/05/03 10:45:18;;;;;;;;;;;14.10;97.10;;;;;;5113240;28;19930;-75
2023/05/03 10:48:04;;;;;;;;;;;13.80;95.90;;;;;;5112236;28;19931;-76
2023/05/03 10:50:33;;;;;;;;;;;13.70;96.70;;;;;;5113145;28;20018;-76
2023/05/03 10:52:58;;;;;;;;;;;13.60;97.00;;;;;;5090157;28;20444;-77
2023/05/03 10:55:27;;;;;;;;;;;13.70;97.10;;;;;;5076188;28;19963;-77
2023/05/03 10:57:54;;;;;;;;;;;13.80;97.20;;;;;;5104115;28;20302;-77
2023/05/03 11:00:28;;;;;;;;;;;13.90;96.80;;;;;;5111378;28;19924;-83
2023/05/03 11:03:02;;;;;;;;;;;13.90;96.10;;;;;;5095105;28;19973;-82
2023/05/03 11:05:29;;;;;;;;;;;13.90;97.10;;;;;;5094767;28;19924;-78
2023/05/03 11:08:07;;;;;;;;;;;13.80;96.30;;;;;;5094193;28;20337;-78
2023/05/03 11:10:32;;;;;;;;;;;13.90;96.60;;;;;;5111231;28;19966;-78
2023/05/03 11:12:59;;;;;;;;;;;13.90;95.70;;;;;;5094025;28;19977;-77
2023/05/03 11:15:24;;;;;;;;;;;13.90;96.70;;;;;;5111071;28;20023;-75
2023/05/03 11:17:50;;;;;;;;;;;13.70;95.70;;;;;;5112625;28;19975;-81
2023/05/03 11:20:18;;;;;;;;;;;14.00;96.30;;;;;;5113177;28;19930;-80
2023/05/03 11:22:43;;;;;;;;;;;14.10;96.10;;;;;;5093503;28;20015;-77
2023/05/03 11:25:09;;;;;;;;;;;14.30;95.50;;;;;;5112217;28;19975;-77
2023/05/03 11:27:35;;;;;;;;;;;14.40;95.80;;;;;;5112274;28;19924;-79
2023/05/03 11:30:00;;;;;;;;;;;14.60;96.90;;;;;;5093094;28;19924;-80
2023/05/03 11:32:26;;;;;;;;;;;14.80;95.60;;;;;;5112354;28;20299;-79
2023/05/03 11:34:52;;;;;;;;;;;14.90;95.00;;;;;;5098224;28;19924;-78
2023/05/03 11:37:17;;;;;;;;;;;14.80;93.50;;;;;;5116310;28;19959;-79
2023/05/03 11:39:43;;;;;;;;;;;14.60;94.80;;;;;;5113080;28;19931;-80
2023/05/03 11:42:08;;;;;;;;;;;14.50;94.50;;;;;;5097382;28;19927;-79
2023/05/03 11:44:35;;;;;;;;;;;14.50;95.00;;;;;;5096810;28;19969;-79
2023/05/03 11:47:01;;;;;;;;;;;14.60;95.40;;;;;;5098187;28;19932;-80
2023/05/03 11:49:26;;;;;;;;;;;14.80;95.60;;;;;;5097179;28;20401;-79
2023/05/03 11:51:52;;;;;;;;;;;14.80;94.00;;;;;;5116207;28;19934;-80
2023/05/03 11:54:18;;;;;;;;;;;14.90;95.40;;;;;;5116602;28;19985;-80
2023/05/03 11:56:46;;;;;;;;;;;15.00;94.50;;;;;;5115548;28;20269;-79
2023/05/03 11:59:12;;;;;;;;;;;15.20;94.70;;;;;;5094038;28;19932;-80
2023/05/03 12:01:37;;;;;;;;;;;14.80;93.90;;;;;;5096321;28;19928;-80
2023/05/03 12:04:06;;;;;;;;;;;15.10;95.00;;;;;;5093836;28;19930;-79
2023/05/03 12:06:32;;;;;;;;;;;15.30;94.80;;;;;;5094908;28;19931;-80
2023/05/03 12:08:59;;;;;;;;;;;15.30;94.20;;;;;;5094290;28;19967;-79
2023/05/03 12:11:25;;;;;;;;;;;15.40;94.40;;;;;;5093971;28;20406;-82
2023/05/03 12:13:57;;;;;;;;;;;15.40;94.30;;;;;;5095732;28;19975;-80
2023/05/03 12:16:23;;;;;;;;;;;15.30;93.30;;;;;;5096004;28;20324;-80
2023/05/03 12:18:51;;;;;;;;;;;15.20;93.70;;;;;;5094700;28;19963;-80
2023/05/03 12:21:18;;;;;;;;;;;15.20;94.40;;;;;;5093709;28;20015;-80
2023/05/03 12:23:44;;;;;;;;;;;15.10;94.30;;;;;;5093618;28;19928;-80
2023/05/03 12:26:13;;;;;;;;;;;15.10;93.90;;;;;;5094656;28;20018;-80
2023/05/03 12:28:39;;;;;;;;;;;15.20;92.50;;;;;;5095598;28;19977;-81
2023/05/03 12:31:04;;;;;;;;;;;15.60;95.30;;;;;;5094004;28;20333;-80
2023/05/03 12:33:30;;;;;;;;;;;16.20;93.60;;;;;;5095162;28;19924;-80
2023/05/03 12:35:57;;;;;;;;;;;16.70;92.80;;;;;;5095462;28;20398;-80
2023/05/03 12:38:22;;;;;;;;;;;17.00;92.00;;;;;;5094455;28;19967;-80
2023/05/03 12:40:48;;;;;;;;;;;16.60;91.60;;;;;;5093203;28;19970;-80
2023/05/03 12:43:14;;;;;;;;;;;16.30;91.90;;;;;;5093261;28;19924;-80
2023/05/03 12:45:40;;;;;;;;;;;16.20;93.30;;;;;;5092842;28;19931;-80
2023/05/03 12:48:07;;;;;;;;;;;15.80;92.60;;;;;;5094477;28;20019;-80
2023/05/03 12:50:32;;;;;;;;;;;15.80;93.10;;;;;;5093856;28;19947;-80
2023/05/03 12:52:58;;;;;;;;;;;16.00;91.80;;;;;;5094177;28;19925;-80
2023/05/03 12:55:23;;;;;;;;;;;16.20;92.30;;;;;;5372204;22;19925;-80
2023/05/03 12:57:49;;;;;;;;;;;16.30;92.10;;;;;;5034611;28;19929;-80
2023/05/03 13:00:16;;;;;;;;;;;15.60;91.20;;;;;;5032589;28;19932;-80
2023/05/03 13:02:42;;;;;;;;;;;15.90;91.50;;;;;;5035131;28;19979;-80
2023/05/03 13:05:08;;;;;;;;;;;16.10;93.50;;;;;;5032694;28;19925;-80
2023/05/03 13:07:33;;;;;;;;;;;16.40;92.40;;;;;;5033194;28;19925;-81
2023/05/03 13:09:59;;;;;;;;;;;16.20;91.40;;;;;;5033142;28;20446;-80
2023/05/03 13:12:25;;;;;;;;;;;16.00;91.70;;;;;;5034654;28;19932;-81
2023/05/03 13:14:51;;;;;;;;;;;16.40;92.40;;;;;;5032310;28;19925;-82
2023/05/03 13:17:19;;;;;;;;;;;16.60;92.80;;;;;;5034716;28;19929;-83
2023/05/03 13:19:46;;;;;;;;;;;16.50;91.30;;;;;;5033557;28;19932;-82
2023/05/03 13:22:15;;;;;;;;;;;16.10;91.40;;;;;;5032688;28;20297;-83
2023/05/03 13:24:44;;;;;;;;;;;16.20;92.90;;;;;;5032765;28;19932;-82
2023/05/03 13:27:10;;;;;;;;;;;16.40;92.80;;;;;;5173144;23;19928;-81
2023/05/03 13:29:36;;;;;;;;;;;16.20;91.10;;;;;;5097420;22;19931;-82
2023/05/03 13:32:04;;;;;;;;;;;16.60;92.40;;;;;;5094770;28;19930;-84
2023/05/03 13:34:29;;;;;;;;;;;16.70;92.50;;;;;;5093183;28;20047;-82
2023/05/03 13:36:55;;;;;;;;;;;16.90;92.10;;;;;;5093551;28;19978;-80
2023/05/03 13:39:21;;;;;;;;;;;16.90;92.00;;;;;;5082783;28;19924;-80
2023/05/03 13:41:46;;;;;;;;;;;16.60;91.10;;;;;;5074151;28;19924;-83
2023/05/03 13:44:12;;;;;;;;;;;16.50;91.20;;;;;;5073490;28;19924;-80
2023/05/03 13:46:38;;;;;;;;;;;16.40;92.30;;;;;;5072908;28;20429;-80
2023/05/03 13:49:06;;;;;;;;;;;16.10;91.30;;;;;;5072089;28;19924;-76
2023/05/03 13:51:32;;;;;;;;;;;15.90;93.50;;;;;;5074195;28;19967;-77
2023/05/03 13:53:58;;;;;;;;;;;15.60;91.70;;;;;;5078179;28;19932;-77
2023/05/03 13:56:23;;;;;;;;;;;15.50;92.10;;;;;;5091788;28;19924;-77
2023/05/03 13:58:49;;;;;;;;;;;15.50;93.10;;;;;;5093224;28;20387;-77
2023/05/03 14:01:15;;;;;;;;;;;15.60;93.60;;;;;;5072524;28;19924;-78
2023/05/03 14:03:40;;;;;;;;;;;15.70;91.90;;;;;;5073589;28;19969;-78
2023/05/03 14:06:07;;;;;;;;;;;15.70;92.40;;;;;;5073823;28;20339;-79
2023/05/03 14:08:33;;;;;;;;;;;15.80;92.20;;;;;;5077028;28;19958;-78
2023/05/03 14:10:59;;;;;;;;;;;15.80;92.90;;;;;;5083066;28;19928;-79
2023/05/03 14:13:26;;;;;;;;;;;15.80;94.10;;;;;;5092371;28;20314;-78
2023/05/03 14:15:51;;;;;;;;;;;15.80;94.00;;;;;;5092073;28;19931;-78
2023/05/03 14:18:17;;;;;;;;;;;15.90;93.00;;;;;;5093310;28;20330;-78
2023/05/03 14:20:43;;;;;;;;;;;15.90;93.00;;;;;;5090674;28;20280;-78